Time;durP1;ratioP1;P1;durP2;ratioP2;P2;SDS_P1;SDS_P2;PMS_P1;PMS_P2;Temp;Humidity;BMP_temperature;BMP_pressure;BME280_temperature;BME280_humidity;BME280_pressure;Samples;Min_cycle;Max_cycle;Signal;HPM_P1;HPM_P2
2022/10/01 00:00:07;;;;;;;3.53;2.70;;;;;;;9.71;100.00;96162.91;5063102;28;20256;-76
2022/10/01 00:02:37;;;;;;;3.27;2.40;;;;;;;9.69;100.00;96163.16;5060812;28;20298;-76
2022/10/01 00:05:05;;;;;;;2.60;2.40;;;;;;;9.70;100.00;96156.69;5061468;28;20203;-76
2022/10/01 00:07:37;;;;;;;3.40;2.07;;;;;;;9.70;100.00;96156.69;5058915;28;20283;-76
2022/10/01 00:10:05;;;;;;;2.10;1.90;;;;;;;9.75;100.00;96150.63;5056114;28;20209;-76
2022/10/01 00:12:32;;;;;;;2.17;1.97;;;;;;;9.75;100.00;96154.16;5067163;28;20205;-76
2022/10/01 00:15:01;;;;;;;2.30;1.90;;;;;;;9.73;100.00;96150.84;5065142;28;20275;-76
2022/10/01 00:17:28;;;;;;;7.97;2.30;;;;;;;9.69;100.00;96140.78;5060423;28;20207;-76
2022/10/01 00:19:55;;;;;;;2.20;2.00;;;;;;;9.76;100.00;96153.09;5050394;28;20291;-76
2022/10/01 00:22:22;;;;;;;2.10;1.90;;;;;;;9.77;100.00;96146.66;5053680;28;20225;-76
2022/10/01 00:24:49;;;;;;;4.00;2.00;;;;;;;9.76;100.00;96139.63;5060573;28;20216;-76
2022/10/01 00:27:16;;;;;;;3.23;2.23;;;;;;;9.76;100.00;96134.22;5063634;28;20190;-76
2022/10/01 00:29:44;;;;;;;2.00;1.87;;;;;;;9.77;100.00;96127.78;5059303;28;20270;-76
2022/10/01 00:32:12;;;;;;;2.17;1.97;;;;;;;9.76;100.00;96138.78;5066935;28;20223;-76
2022/10/01 00:34:39;;;;;;;5.93;1.90;;;;;;;9.78;100.00;96145.59;5059390;28;20201;-76
2022/10/01 00:37:08;;;;;;;1.97;1.80;;;;;;;9.75;100.00;96148.75;5057639;28;20307;-76
2022/10/01 00:39:35;;;;;;;2.47;2.27;;;;;;;9.77;100.00;96145.84;5055551;28;20254;-76
2022/10/01 00:42:02;;;;;;;2.40;2.20;;;;;;;9.75;100.00;96148.75;5071233;28;20197;-76
2022/10/01 00:44:35;;;;;;;2.43;1.80;;;;;;;9.72;100.00;96154.59;5058515;28;20201;-76
2022/10/01 00:47:10;;;;;;;2.40;1.83;;;;;;;9.70;100.00;96156.69;5063099;28;20202;-76
2022/10/01 00:49:40;;;;;;;1.80;1.70;;;;;;;9.67;100.00;96162.56;5066217;28;20204;-76
2022/10/01 00:52:12;;;;;;;4.00;1.70;;;;;;;9.68;100.00;96158.81;5058233;28;20222;-76
2022/10/01 00:54:43;;;;;;;2.40;1.80;;;;;;;9.71;100.00;96171.00;5057753;28;20202;-76
2022/10/01 00:57:13;;;;;;;2.80;1.70;;;;;;;9.71;100.00;96169.13;5060827;28;20212;-76
2022/10/01 00:59:40;;;;;;;2.00;1.80;;;;;;;9.71;100.00;96168.31;5062418;28;20214;-76
2022/10/01 01:02:07;;;;;;;3.50;1.90;;;;;;;9.72;100.00;96170.78;5061061;28;20210;-76
2022/10/01 01:04:34;;;;;;;3.03;1.80;;;;;;;9.71;100.00;96171.00;5063133;28;20214;-76
2022/10/01 01:07:05;;;;;;;4.67;1.97;;;;;;;9.71;100.00;96171.81;5058106;28;20213;-76
2022/10/01 01:09:35;;;;;;;3.70;2.43;;;;;;;9.72;100.00;96167.25;5063701;28;20202;-76
2022/10/01 01:12:14;;;;;;;4.67;2.40;;;;;;;9.73;100.00;96167.03;5064003;28;20233;-76
2022/10/01 01:14:53;;;;;;;4.53;2.50;;;;;;;9.74;100.00;96168.69;5061071;28;20930;-76
2022/10/01 01:17:27;;;;;;;3.97;2.80;;;;;;;9.69;100.00;96173.94;5063938;28;20264;-76
2022/10/01 01:20:15;;;;;;;3.33;2.40;;;;;;;9.69;100.00;96171.25;5059808;28;20213;-77
2022/10/01 01:22:50;;;;;;;4.27;2.50;;;;;;;9.64;100.00;96173.78;5065519;28;20196;-77
2022/10/01 01:25:22;;;;;;;2.60;2.13;;;;;;;9.64;100.00;96184.56;5053741;28;20464;-77
2022/10/01 01:28:02;;;;;;;2.30;2.10;;;;;;;9.64;100.00;96189.97;5062830;28;20282;-76
2022/10/01 01:30:33;;;;;;;2.57;2.27;;;;;;;9.60;100.00;96183.41;5062029;28;20202;-76
2022/10/01 01:33:03;;;;;;;2.97;2.60;;;;;;;9.54;100.00;96181.59;5061879;28;20209;-76
2022/10/01 01:35:34;;;;;;;3.17;2.50;;;;;;;9.54;100.00;96186.16;5053765;28;20267;-76
2022/10/01 01:38:06;;;;;;;3.73;2.67;;;;;;;9.54;100.00;96159.22;5057074;28;20264;-76
2022/10/01 01:40:37;;;;;;;3.57;2.47;;;;;;;9.49;100.00;96127.56;5066492;28;20282;-76
2022/10/01 01:43:10;;;;;;;2.93;2.63;;;;;;;9.50;100.00;96137.31;5058742;28;20400;-76
2022/10/01 01:45:40;;;;;;;6.80;2.50;;;;;;;9.40;100.00;96123.53;5051192;28;20213;-76
2022/10/01 01:48:08;;;;;;;2.93;2.20;;;;;;;9.51;100.00;96144.34;5065392;28;20213;-76
2022/10/01 01:50:43;;;;;;;2.70;2.03;;;;;;;9.54;100.00;96162.72;5060647;28;20289;-76
2022/10/01 01:53:11;;;;;;;3.07;2.20;;;;;;;9.59;100.00;96170.97;5056602;28;20209;-76
2022/10/01 01:55:39;;;;;;;2.93;2.20;;;;;;;9.65;100.00;96171.91;5056140;28;20233;-77
2022/10/01 01:58:08;;;;;;;2.67;2.47;;;;;;;9.69;100.00;96168.56;5063550;28;20301;-77
2022/10/01 02:00:35;;;;;;;5.50;2.70;;;;;;;9.60;100.00;96158.31;5067090;28;20233;-76
2022/10/01 02:03:02;;;;;;;3.67;2.30;;;;;;;9.63;100.00;96168.63;5048607;28;20275;-76
2022/10/01 02:05:42;;;;;;;4.40;2.20;;;;;;;9.67;100.00;96165.25;5057470;28;20225;-76
2022/10/01 02:08:39;;;;;;;2.60;2.40;;;;;;;9.74;100.00;96174.06;5060095;28;20214;-76
2022/10/01 02:11:21;;;;;;;3.73;2.13;;;;;;;9.77;100.00;96187.09;5058534;28;20217;-76
2022/10/01 02:14:10;;;;;;;5.20;2.83;;;;;;;9.78;100.00;96188.72;5055024;28;20276;-76
2022/10/01 02:16:48;;;;;;;4.20;2.40;;;;;;;9.81;100.00;96190.97;5061678;28;20328;-77
2022/10/01 02:19:24;;;;;;;4.67;2.30;;;;;;;9.83;100.00;96196.97;5062632;28;20212;-77
2022/10/01 02:21:59;;;;;;;2.90;2.13;;;;;;;9.77;100.00;96192.50;5061917;28;20245;-76
2022/10/01 02:24:37;;;;;;;3.27;2.40;;;;;;;9.68;100.00;96188.47;5078403;28;20220;-76
2022/10/01 02:27:11;;;;;;;3.63;2.50;;;;;;;9.61;100.00;96178.84;5061022;28;20213;-76
2022/10/01 02:29:42;;;;;;;3.77;2.40;;;;;;;9.56;100.00;96176.81;5063572;28;20236;-76
2022/10/01 02:32:11;;;;;;;2.60;2.40;;;;;;;9.55;100.00;96180.56;5064061;28;20225;-76
2022/10/01 02:34:40;;;;;;;2.77;2.40;;;;;;;9.54;100.00;96183.47;5055184;28;20216;-76
2022/10/01 02:37:10;;;;;;;2.90;2.40;;;;;;;9.52;100.00;96175.63;5071240;28;20285;-76
2022/10/01 02:39:40;;;;;;;4.13;2.97;;;;;;;9.53;100.00;96168.38;5062106;28;20217;-76
2022/10/01 02:42:10;;;;;;;5.23;3.03;;;;;;;9.56;100.00;96157.94;5059440;28;20213;-76
2022/10/01 02:44:41;;;;;;;2.50;2.30;;;;;;;9.64;100.00;96157.63;5055954;28;20300;-76
2022/10/01 02:47:14;;;;;;;3.37;2.20;;;;;;;9.63;100.00;96153.28;5051123;28;20220;-76
2022/10/01 02:49:42;;;;;;;2.67;2.27;;;;;;;9.57;100.00;96150.69;5066511;28;20267;-76
2022/10/01 02:52:17;;;;;;;2.50;2.30;;;;;;;9.59;100.00;96146.72;5054451;28;20228;-76
2022/10/01 02:54:51;;;;;;;2.10;1.90;;;;;;;9.62;100.00;96143.53;5053971;28;20209;-76
2022/10/01 02:57:25;;;;;;;2.10;1.80;;;;;;;9.59;100.00;96133.25;5060019;28;20205;-76
2022/10/01 02:59:55;;;;;;;2.40;1.80;;;;;;;9.57;100.00;96135.34;5059986;28;20339;-76
2022/10/01 03:02:26;;;;;;;1.63;1.53;;;;;;;9.62;100.00;96143.53;5059390;28;20212;-76
2022/10/01 03:04:53;;;;;;;4.23;1.80;;;;;;;9.67;100.00;96129.38;5061671;28;20263;-76
2022/10/01 03:07:20;;;;;;;2.60;1.60;;;;;;;9.70;100.00;96112.72;5057595;28;20197;-77
2022/10/01 03:09:49;;;;;;;2.37;1.50;;;;;;;9.77;100.00;96108.91;5057622;28;20306;-76
2022/10/01 03:12:17;;;;;;;1.50;1.40;;;;;;;9.85;100.00;96111.28;5060235;28;20217;-76
2022/10/01 03:14:44;;;;;;;1.40;1.30;;;;;;;9.87;100.00;96108.31;5053290;28;20233;-76
2022/10/01 03:17:12;;;;;;;1.80;1.60;;;;;;;9.88;100.00;96109.97;5060945;28;20218;-76
2022/10/01 03:19:41;;;;;;;1.30;1.20;;;;;;;9.83;100.00;96113.38;5055610;28;20244;-76
2022/10/01 03:22:09;;;;;;;2.33;1.73;;;;;;;9.81;100.00;96118.16;5064241;28;20206;-76
2022/10/01 03:24:36;;;;;;;2.70;1.70;;;;;;;9.75;100.00;96115.56;5060895;28;20250;-76
2022/10/01 03:27:03;;;;;;;2.20;1.30;;;;;;;9.76;100.00;96119.94;5060671;28;20209;-77
2022/10/01 03:29:30;;;;;;;1.60;1.50;;;;;;;9.73;100.00;96118.50;5060462;28;20210;-76
2022/10/01 03:31:57;;;;;;;2.30;2.07;;;;;;;9.75;100.00;96118.28;5060679;28;20691;-76
2022/10/01 03:34:25;;;;;;;6.07;2.80;;;;;;;9.76;100.00;96126.13;5060868;28;20198;-76
2022/10/01 03:36:53;;;;;;;1.97;1.70;;;;;;;9.80;100.00;96124.59;5061775;28;20201;-76
2022/10/01 03:39:20;;;;;;;2.93;1.40;;;;;;;9.80;100.00;96119.22;5050521;28;20247;-76
2022/10/01 03:41:47;;;;;;;2.90;1.83;;;;;;;9.80;100.00;96119.22;5058686;28;20251;-76
2022/10/01 03:44:14;;;;;;;2.20;1.70;;;;;;;9.83;100.00;96116.06;5064403;28;20208;-76
2022/10/01 03:46:41;;;;;;;2.67;1.70;;;;;;;9.86;100.00;96123.72;5060970;28;20282;-76
2022/10/01 03:49:09;;;;;;;1.40;1.30;;;;;;;9.82;100.00;96125.22;5060274;28;20193;-76
2022/10/01 03:51:37;;;;;;;2.70;1.60;;;;;;;9.79;100.00;96122.97;5059629;28;20312;-76
2022/10/01 03:54:07;;;;;;;1.87;1.50;;;;;;;9.80;100.00;96132.69;5061349;28;20201;-76
2022/10/01 03:56:35;;;;;;;2.43;1.40;;;;;;;9.80;100.00;96132.69;5054638;28;20258;-76
2022/10/01 03:59:02;;;;;;;4.53;1.40;;;;;;;9.80;100.00;96127.31;5064326;28;20204;-76
2022/10/01 04:01:29;;;;;;;1.73;1.43;;;;;;;9.81;100.00;96120.88;5061257;28;20289;-76
2022/10/01 04:03:56;;;;;;;2.50;1.70;;;;;;;9.78;100.00;96118.63;5059771;28;20205;-76
2022/10/01 04:06:23;;;;;;;1.60;1.50;;;;;;;9.71;100.00;96117.91;5063238;28;20216;-76
2022/10/01 04:08:51;;;;;;;2.80;1.50;;;;;;;9.67;100.00;96126.69;5059440;28;20220;-76
2022/10/01 04:11:20;;;;;;;1.67;1.30;;;;;;;9.66;100.00;96130.44;5059692;28;20219;-76
2022/10/01 04:13:47;;;;;;;2.20;1.33;;;;;;;9.62;100.00;96119.28;5061465;28;20245;-76
2022/10/01 04:16:15;;;;;;;2.03;1.30;;;;;;;9.59;100.00;96117.06;5059898;28;20217;-76
2022/10/01 04:18:42;;;;;;;1.67;1.33;;;;;;;9.59;100.00;96127.84;5068652;28;20209;-76
2022/10/01 04:21:11;;;;;;;1.33;1.23;;;;;;;9.60;100.00;96137.56;5057291;28;20268;-76
2022/10/01 04:23:38;;;;;;;1.27;1.17;;;;;;;9.63;100.00;96147.88;5065999;28;20263;-76
2022/10/01 04:26:06;;;;;;;1.40;1.30;;;;;;;9.64;100.00;96146.84;5066277;28;20201;-76
2022/10/01 04:28:35;;;;;;;3.43;1.53;;;;;;;9.58;100.00;96136.97;5067521;28;20221;-76
2022/10/01 04:33:46;;;;;;;3.33;1.40;;;;;;;9.43;100.00;96139.28;5062573;28;20209;-76
2022/10/01 04:36:13;;;;;;;1.30;1.20;;;;;;;9.41;100.00;96142.19;5066267;28;20223;-76
2022/10/01 04:38:40;;;;;;;2.67;1.40;;;;;;;9.48;100.00;96136.69;5055290;28;20247;-76
2022/10/01 04:41:08;;;;;;;1.47;1.37;;;;;;;9.45;100.00;96134.44;5062488;28;20236;-76
2022/10/01 04:43:36;;;;;;;1.53;1.40;;;;;;;9.40;100.00;96131.63;5067736;28;20323;-77
2022/10/01 04:46:03;;;;;;;3.27;1.20;;;;;;;9.39;100.00;96138.06;5061798;28;20194;-76
2022/10/01 04:48:30;;;;;;;1.40;1.10;;;;;;;9.40;100.00;96150.50;5058232;28;20210;-76
2022/10/01 04:50:57;;;;;;;3.43;1.30;;;;;;;9.38;100.00;96153.41;5062694;28;20289;-76
2022/10/01 04:53:25;;;;;;;1.30;1.20;;;;;;;9.40;100.00;96150.50;5058648;28;20237;-76
2022/10/01 04:55:52;;;;;;;1.83;1.30;;;;;;;9.38;100.00;96156.09;5061923;28;20376;-76
2022/10/01 04:58:19;;;;;;;2.13;1.70;;;;;;;9.36;100.00;96149.28;5065331;28;20205;-76
2022/10/01 05:00:48;;;;;;;1.80;1.50;;;;;;;9.34;100.00;96136.06;5063973;28;20201;-76
2022/10/01 05:03:15;;;;;;;2.80;1.60;;;;;;;9.32;100.00;96129.25;5058272;28;20208;-76
2022/10/01 05:05:42;;;;;;;1.60;1.50;;;;;;;9.28;100.00;96136.94;5075586;28;20217;-76
2022/10/01 05:08:09;;;;;;;3.37;2.07;;;;;;;9.23;100.00;96138.69;5062351;28;20198;-76
2022/10/01 05:10:36;;;;;;;2.13;1.73;;;;;;;9.20;100.00;96139.13;5061881;28;20261;-76
2022/10/01 05:13:03;;;;;;;2.77;1.33;;;;;;;9.19;100.00;96142.88;5060970;28;20218;-76
2022/10/01 05:15:30;;;;;;;2.10;1.77;;;;;;;9.19;100.00;96142.88;5061384;28;20284;-76
2022/10/01 05:17:59;;;;;;;2.00;1.70;;;;;;;9.15;100.00;96134.44;5066893;28;20200;-76
2022/10/01 05:20:28;;;;;;;2.53;1.80;;;;;;;9.18;100.00;96134.00;5060440;28;20292;-76
2022/10/01 05:22:55;;;;;;;2.00;1.63;;;;;;;9.19;100.00;96134.78;5063736;28;20193;-76
2022/10/01 05:25:22;;;;;;;1.60;1.50;;;;;;;9.26;100.00;96151.72;5062711;28;20274;-76
2022/10/01 05:27:50;;;;;;;2.83;1.40;;;;;;;9.31;100.00;96157.25;5057410;28;20484;-76
2022/10/01 05:30:22;;;;;;;2.07;1.70;;;;;;;9.28;100.00;96163.06;5068243;28;20296;-76
2022/10/01 05:32:57;;;;;;;2.07;1.60;;;;;;;9.24;100.00;96169.97;5063499;28;20257;-75
2022/10/01 05:35:26;;;;;;;2.07;1.60;;;;;;;9.27;100.00;96183.00;5047461;28;20197;-76
2022/10/01 05:37:55;;;;;;;2.07;1.67;;;;;;;9.31;100.00;96194.97;5063237;28;20197;-75
2022/10/01 05:40:23;;;;;;;5.23;1.70;;;;;;;9.29;100.00;96191.66;5055754;28;20260;-75
2022/10/01 05:42:50;;;;;;;7.80;1.80;;;;;;;9.22;100.00;96190.94;5049552;28;20205;-75
2022/10/01 05:45:18;;;;;;;2.00;1.80;;;;;;;9.19;100.00;96191.38;5058661;28;20206;-76
2022/10/01 05:47:46;;;;;;;2.30;2.03;;;;;;;9.20;100.00;96193.00;5051010;28;20214;-76
2022/10/01 05:50:14;;;;;;;2.37;1.50;;;;;;;9.23;100.00;96198.78;5061576;28;20292;-76
2022/10/01 05:52:50;;;;;;;2.17;1.40;;;;;;;9.24;100.00;96199.63;5062435;28;20318;-76
2022/10/01 05:55:17;;;;;;;1.90;1.80;;;;;;;9.27;100.00;96201.88;5052123;28;20202;-76
2022/10/01 05:57:44;;;;;;;3.90;2.20;;;;;;;9.28;100.00;96190.00;5076230;28;20201;-76
2022/10/01 06:00:13;;;;;;;3.20;1.60;;;;;;;9.26;100.00;96190.28;5063206;28;20221;-76
2022/10/01 06:02:40;;;;;;;2.00;1.80;;;;;;;9.27;100.00;96188.41;5058218;28;20225;-76
2022/10/01 06:05:08;;;;;;;1.47;1.20;;;;;;;9.22;100.00;96190.94;5058811;28;20206;-76
2022/10/01 06:07:35;;;;;;;1.87;1.47;;;;;;;9.22;100.00;96193.63;5064241;28;20209;-76
2022/10/01 06:10:04;;;;;;;1.43;1.30;;;;;;;9.25;100.00;96196.69;5060237;28;20213;-76
2022/10/01 06:12:33;;;;;;;2.47;1.50;;;;;;;9.24;100.00;96200.44;5057367;28;20213;-76
2022/10/01 06:15:00;;;;;;;1.50;1.40;;;;;;;9.24;100.00;96200.44;5058898;28;20229;-75
2022/10/01 06:17:27;;;;;;;1.73;1.60;;;;;;;9.23;100.00;96214.13;5061013;28;20209;-76
2022/10/01 06:19:54;;;;;;;2.13;1.57;;;;;;;9.27;100.00;96199.19;5052386;28;20348;-76
2022/10/01 06:22:21;;;;;;;4.07;2.00;;;;;;;9.33;100.00;96212.56;5055430;28;20531;-76
2022/10/01 06:24:48;;;;;;;4.90;2.00;;;;;;;9.36;100.00;96211.25;5063075;28;20209;-76
2022/10/01 06:27:17;;;;;;;4.13;1.87;;;;;;;9.32;100.00;96192.06;5066067;28;20212;-76
2022/10/01 06:29:44;;;;;;;4.23;1.63;;;;;;;9.42;100.00;96205.81;5061575;28;20299;-76
2022/10/01 06:32:16;;;;;;;2.87;1.77;;;;;;;9.44;100.00;96216.38;5060510;28;20232;-76
2022/10/01 06:34:43;;;;;;;2.00;1.80;;;;;;;9.49;100.00;96219.19;5076913;28;20221;-76
2022/10/01 06:37:10;;;;;;;2.23;1.80;;;;;;;9.55;100.00;96228.25;5057449;28;20206;-76
2022/10/01 06:39:37;;;;;;;1.90;1.70;;;;;;;9.54;100.00;96219.34;5057803;28;20217;-76
2022/10/01 06:42:04;;;;;;;1.83;1.60;;;;;;;9.58;100.00;96225.94;5057351;28;20206;-76
2022/10/01 06:44:33;;;;;;;3.33;2.07;;;;;;;9.51;100.00;96217.09;5064476;28;20300;-75
2022/10/01 06:47:00;;;;;;;1.73;1.53;;;;;;;9.46;100.00;96215.06;5063470;28;20197;-76
2022/10/01 06:49:26;;;;;;;2.20;2.00;;;;;;;9.46;100.00;96225.03;5058026;28;20205;-76
2022/10/01 06:54:38;;;;;;;1.67;1.57;;;;;;;9.60;100.00;96220.31;5063687;28;20225;-76
2022/10/01 06:57:05;;;;;;;2.90;2.13;;;;;;;9.56;100.00;96214.53;5058725;28;20240;-75
2022/10/01 06:59:36;;;;;;;3.67;2.30;;;;;;;9.52;100.00;96204.47;5060270;28;20212;-76
2022/10/01 07:02:03;;;;;;;2.60;2.40;;;;;;;9.49;100.00;96203.84;5076370;28;20275;-78
2022/10/01 07:04:30;;;;;;;2.40;2.20;;;;;;;9.53;100.00;96198.81;5061390;28;20209;-75
2022/10/01 07:06:57;;;;;;;2.50;2.00;;;;;;;9.62;100.00;96213.63;5058754;28;20209;-75
2022/10/01 07:09:25;;;;;;;2.93;2.27;;;;;;;9.68;100.00;96207.34;5057411;28;20206;-76
2022/10/01 07:11:53;;;;;;;3.77;2.63;;;;;;;9.76;100.00;96209.72;5061066;28;20208;-75
2022/10/01 07:14:20;;;;;;;2.33;1.90;;;;;;;9.79;100.00;96211.13;5061281;28;20276;-75
2022/10/01 07:16:48;;;;;;;2.10;1.73;;;;;;;9.80;100.00;96199.28;5063779;28;20220;-75
2022/10/01 07:19:17;;;;;;;4.10;1.80;;;;;;;9.86;100.00;96199.22;5062711;28;20231;-75
2022/10/01 07:21:45;;;;;;;2.10;1.87;;;;;;;9.94;100.00;96191.84;5064947;28;20197;-75
2022/10/01 07:24:12;;;;;;;3.70;1.93;;;;;;;10.04;100.00;96201.00;5061993;28;20305;-75
2022/10/01 07:26:39;;;;;;;2.07;1.70;;;;;;;10.06;100.00;96198.09;5065354;28;20320;-77
2022/10/01 07:29:08;;;;;;;2.17;1.80;;;;;;;10.04;100.00;96200.19;5057988;28;20263;-78
2022/10/01 07:31:35;;;;;;;3.60;1.60;;;;;;;9.97;100.00;96194.88;5055286;28;20264;-77
2022/10/01 07:34:04;;;;;;;1.63;1.53;;;;;;;10.03;100.00;96188.59;5056907;28;20218;-78
2022/10/01 07:36:31;;;;;;;1.67;1.57;;;;;;;9.99;100.00;96186.56;5062761;28;20220;-78
2022/10/01 07:38:59;;;;;;;3.07;1.60;;;;;;;10.04;100.00;96179.41;5063421;28;20216;-78
2022/10/01 07:41:26;;;;;;;2.83;1.50;;;;;;;10.08;100.00;96179.78;5062615;28;20263;-78
2022/10/01 07:43:53;;;;;;;1.93;1.60;;;;;;;10.15;100.00;96185.91;5063410;28;20205;-78
2022/10/01 07:46:20;;;;;;;1.77;1.43;;;;;;;10.20;100.00;96186.09;5061858;28;20345;-78
2022/10/01 07:48:48;;;;;;;3.80;1.60;;;;;;;10.24;100.00;96185.38;5059817;28;20210;-78
2022/10/01 07:51:17;;;;;;;1.40;1.30;;;;;;;10.26;100.00;96179.75;5050745;28;20293;-78
2022/10/01 07:53:44;;;;;;;1.20;1.10;;;;;;;10.33;100.00;96187.75;5050489;28;20228;-78
2022/10/01 07:56:11;;;;;;;2.47;1.30;;;;;;;10.34;100.00;96184.81;5088579;28;20209;-76
2022/10/01 07:58:38;;;;;;;3.33;2.07;;;;;;;10.37;100.00;96176.25;5061274;28;20282;-76
2022/10/01 08:01:05;;;;;;;2.80;2.10;;;;;;;10.47;100.00;96189.97;5061016;28;20298;-75
2022/10/01 08:03:32;;;;;;;3.87;1.73;;;;;;;10.50;100.00;96200.31;5059609;28;20199;-76
2022/10/01 08:06:02;;;;;;;1.63;1.53;;;;;;;10.57;100.00;96198.31;5064703;28;20209;-76
2022/10/01 08:08:31;;;;;;;3.90;1.90;;;;;;;10.63;100.00;96193.06;5065477;28;20205;-75
2022/10/01 08:10:58;;;;;;;2.30;1.60;;;;;;;10.66;100.00;96200.69;5057056;28;20240;-75
2022/10/01 08:13:25;;;;;;;1.83;1.43;;;;;;;10.68;100.00;96201.28;5060018;28;20241;-75
2022/10/01 08:15:53;;;;;;;2.00;1.80;;;;;;;10.73;100.00;96204.06;5077256;28;20232;-75
2022/10/01 08:18:21;;;;;;;3.43;1.77;;;;;;;10.76;100.00;96204.44;5063038;28;20205;-76
2022/10/01 08:20:48;;;;;;;2.13;1.80;;;;;;;10.76;100.00;96200.91;5048281;28;20240;-75
2022/10/01 08:23:17;;;;;;;1.80;1.70;;;;;;;10.80;100.00;96205.59;5068289;28;20268;-75
2022/10/01 08:25:46;;;;;;;3.07;1.80;;;;;;;10.79;100.00;96209.38;5063060;28;20289;-76
2022/10/01 08:28:15;;;;;;;4.47;1.40;;;;;;;10.82;100.00;96200.78;5055343;28;20569;-76
2022/10/01 08:30:42;;;;;;;2.03;1.60;;;;;;;10.85;100.00;96196.81;5060929;28;20216;-76
2022/10/01 08:33:12;;;;;;;2.00;1.37;;;;;;;10.92;100.00;96201.03;5063078;28;20229;-76
2022/10/01 08:35:40;;;;;;;1.70;1.60;;;;;;;10.93;100.00;96199.97;5064284;28;20244;-77
2022/10/01 08:38:08;;;;;;;1.80;1.47;;;;;;;10.99;100.00;96195.50;5066163;28;20205;-76
2022/10/01 08:40:42;;;;;;;2.17;1.10;;;;;;;10.95;100.00;96187.06;5063516;28;20205;-76
2022/10/01 08:43:26;;;;;;;3.73;2.80;;;;;;;10.87;100.00;96183.91;5060034;28;20198;-76
2022/10/01 08:45:58;;;;;;;1.40;1.20;;;;;;;10.89;100.00;96187.97;5055924;28;20205;-76
2022/10/01 08:48:37;;;;;;;1.70;1.60;;;;;;;10.89;100.00;96184.47;5062290;28;20205;-76
2022/10/01 08:51:08;;;;;;;2.70;1.30;;;;;;;10.74;100.00;96189.53;5061501;28;20212;-76
2022/10/01 08:53:40;;;;;;;2.00;1.53;;;;;;;10.81;100.00;96176.72;5053302;28;20229;-76
2022/10/01 08:56:17;;;;;;;1.50;1.40;;;;;;;10.92;100.00;96173.19;5063310;28;20265;-76
2022/10/01 08:58:53;;;;;;;3.60;1.63;;;;;;;10.96;100.00;96172.50;5058367;28;20274;-76
2022/10/01 09:01:23;;;;;;;2.67;1.80;;;;;;;11.08;100.00;96166.25;5061340;28;20227;-76
2022/10/01 09:03:50;;;;;;;3.73;2.03;;;;;;;11.13;100.00;96164.50;5060279;28;20206;-76
2022/10/01 09:06:24;;;;;;;3.07;2.00;;;;;;;11.18;100.00;96153.78;5066762;28;20209;-76
2022/10/01 09:09:07;;;;;;;2.23;1.60;;;;;;;11.25;100.00;96165.25;5057873;28;20198;-76
2022/10/01 09:11:52;;;;;;;1.67;1.17;;;;;;;11.54;100.00;96159.91;5054682;28;20274;-76
2022/10/01 09:14:53;;;;;;;0.70;0.70;;;;;;;12.45;100.00;96153.44;5079830;28;20233;-76
2022/10/01 09:17:31;;;;;;;0.70;0.70;;;;;;;13.00;100.00;96158.06;5066702;28;20195;-76
2022/10/01 09:20:10;;;;;;;0.80;0.80;;;;;;;13.49;100.00;96154.38;5066055;28;20201;-75
2022/10/01 09:22:40;;;;;;;0.90;0.90;;;;;;;13.56;99.38;96144.16;5063218;28;20209;-76
2022/10/01 09:25:17;;;;;;;1.80;1.30;;;;;;;13.66;94.73;96126.34;5063752;28;20202;-76
2022/10/01 09:27:44;;;;;;;3.83;2.57;;;;;;;13.76;96.77;96132.72;5058851;28;20206;-76
2022/10/01 09:30:16;;;;;;;3.90;3.10;;;;;;;13.73;99.21;96137.81;5062441;28;20213;-76
2022/10/01 09:32:48;;;;;;;1.03;0.93;;;;;;;13.76;93.69;96126.47;5064583;28;20202;-76
2022/10/01 09:35:35;;;;;;;1.10;1.00;;;;;;;13.82;95.35;96114.56;5066284;28;20205;-77
2022/10/01 09:38:06;;;;;;;0.80;0.80;;;;;;;13.87;95.33;96122.75;5081353;28;20212;-76
2022/10/01 09:40:36;;;;;;;0.70;0.70;;;;;;;13.90;95.93;96123.06;5064089;28;20217;-76
2022/10/01 09:43:06;;;;;;;0.80;0.80;;;;;;;13.85;96.84;96111.38;5057197;28;20263;-76
2022/10/01 09:45:36;;;;;;;0.70;0.70;;;;;;;13.90;96.35;96105.97;5060792;28;20217;-76
2022/10/01 09:48:13;;;;;;;0.60;0.60;;;;;;;13.96;94.50;96108.47;5064743;28;20210;-76
2022/10/01 09:50:44;;;;;;;1.63;0.87;;;;;;;13.97;93.31;96101.16;5063344;28;20205;-76
2022/10/01 09:53:18;;;;;;;1.43;0.70;;;;;;;13.94;96.91;96107.94;5066141;28;20202;-76
2022/10/01 09:55:52;;;;;;;0.60;0.60;;;;;;;13.89;96.86;96102.44;5060443;28;20205;-77
2022/10/01 09:58:23;;;;;;;1.07;0.80;;;;;;;13.89;98.56;96109.75;5056810;28;20206;-76
2022/10/01 10:00:53;;;;;;;0.70;0.70;;;;;;;13.94;95.36;96112.53;5068125;28;20258;-76
2022/10/01 10:03:24;;;;;;;0.60;0.60;;;;;;;14.00;93.34;96115.03;5065980;28;20248;-76
2022/10/01 10:05:52;;;;;;;0.90;0.90;;;;;;;14.03;92.66;96114.50;5053787;28;20202;-76
2022/10/01 10:08:26;;;;;;;0.67;0.67;;;;;;;14.06;100.00;96132.19;5066239;28;20202;-76
2022/10/01 10:10:59;;;;;;;0.80;0.80;;;;;;;13.95;100.00;96150.25;5063171;28;20288;-76
2022/10/01 10:13:33;;;;;;;1.13;1.03;;;;;;;13.85;100.00;96160.22;5061554;28;20237;-76
2022/10/01 10:16:09;;;;;;;1.30;1.20;;;;;;;13.70;100.00;96166.28;5052046;28;20241;-76
2022/10/01 10:18:39;;;;;;;1.33;1.00;;;;;;;13.56;100.00;96163.13;5057689;28;20206;-76
2022/10/01 10:21:13;;;;;;;1.60;1.03;;;;;;;13.51;100.00;96154.13;5064091;28;20214;-76
2022/10/01 10:23:49;;;;;;;2.23;0.90;;;;;;;13.38;100.00;96168.06;5057217;28;20190;-78
2022/10/01 10:26:20;;;;;;;1.43;1.30;;;;;;;13.32;100.00;96160.94;5066697;28;20197;-76
2022/10/01 10:28:47;;;;;;;1.00;0.73;;;;;;;13.23;100.00;96171.41;5064349;28;20209;-76
2022/10/01 10:31:18;;;;;;;1.73;0.70;;;;;;;13.10;100.00;96188.00;5060589;28;20202;-76
2022/10/01 10:33:52;;;;;;;0.70;0.70;;;;;;;12.91;100.00;96202.91;5059618;28;20233;-76
2022/10/01 10:36:22;;;;;;;0.60;0.60;;;;;;;12.81;100.00;96209.00;5056088;28;20396;-76
2022/10/01 10:38:52;;;;;;;1.07;1.00;;;;;;;12.80;100.00;96207.34;5060686;28;20220;-76
2022/10/01 10:41:25;;;;;;;1.47;1.20;;;;;;;12.73;100.00;96214.81;5062098;28;20205;-76
2022/10/01 10:43:56;;;;;;;1.23;1.13;;;;;;;12.69;100.00;96210.94;5058966;28;20197;-76
2022/10/01 10:46:30;;;;;;;1.20;1.10;;;;;;;12.59;100.00;96198.06;5059891;28;20206;-76
2022/10/01 10:49:04;;;;;;;1.87;1.50;;;;;;;12.55;100.00;96206.94;5070181;28;20210;-76
2022/10/01 10:51:47;;;;;;;3.30;1.57;;;;;;;12.52;100.00;96224.50;5060084;28;20212;-75
2022/10/01 10:54:19;;;;;;;2.40;2.00;;;;;;;12.52;100.00;96246.97;5059551;28;20224;-76
2022/10/01 10:57:01;;;;;;;3.53;1.70;;;;;;;12.43;100.00;96255.75;5076448;28;20201;-76
2022/10/01 10:59:31;;;;;;;3.47;1.50;;;;;;;12.36;100.00;96253.19;5065598;28;20292;-76
2022/10/01 11:02:01;;;;;;;2.90;2.07;;;;;;;12.32;100.00;96251.22;5051302;28;20256;-76
2022/10/01 11:04:44;;;;;;;2.63;1.80;;;;;;;12.20;100.00;96245.88;5065639;28;20288;-76
2022/10/01 11:07:13;;;;;;;4.67;3.60;;;;;;;12.21;100.00;96269.16;5057747;28;20212;-76
2022/10/01 11:09:57;;;;;;;6.60;3.07;;;;;;;12.29;100.00;96289.59;5059158;28;20205;-76
2022/10/01 11:12:37;;;;;;;4.67;1.97;;;;;;;12.28;100.00;96271.72;5059029;28;20228;-76
2022/10/01 11:15:28;;;;;;;1.70;1.40;;;;;;;12.19;100.00;96255.03;5066291;28;20228;-76
2022/10/01 11:18:33;;;;;;;1.73;1.43;;;;;;;12.20;100.00;96242.34;5072224;28;20267;-76
2022/10/01 11:21:15;;;;;;;4.90;2.97;;;;;;;12.18;100.00;96239.88;5029199;28;20224;-76
2022/10/01 11:24:10;;;;;;;5.37;3.77;;;;;;;12.10;100.00;96234.84;5067331;28;20213;-76
2022/10/01 11:26:47;;;;;;;1.77;1.63;;;;;;;12.19;100.00;96219.84;5066533;28;20254;-76
2022/10/01 11:29:26;;;;;;;4.73;2.00;;;;;;;12.21;100.00;96222.31;5063788;28;20295;-76
2022/10/01 11:32:02;;;;;;;4.27;3.60;;;;;;;12.27;100.00;96214.03;5065004;28;20201;-76
2022/10/01 11:34:54;;;;;;;2.50;2.20;;;;;;;12.37;100.00;96206.09;5062324;28;20291;-76
2022/10/01 11:37:38;;;;;;;2.93;2.10;;;;;;;12.50;100.00;96203.06;5063626;28;20324;-76
2022/10/01 11:40:16;;;;;;;2.50;2.30;;;;;;;12.67;100.00;96184.13;5060030;28;20289;-76
2022/10/01 11:42:46;;;;;;;2.47;1.77;;;;;;;12.65;100.00;96170.00;5055780;28;20213;-76
2022/10/01 11:45:20;;;;;;;11.30;7.07;;;;;;;12.76;100.00;96188.03;5062350;28;20206;-76
2022/10/01 11:47:52;;;;;;;2.93;2.57;;;;;;;12.85;100.00;96159.47;5063573;28;20201;-76
2022/10/01 11:50:25;;;;;;;3.30;2.33;;;;;;;12.89;100.00;96136.22;5057330;28;20291;-76
2022/10/01 11:52:57;;;;;;;3.50;1.90;;;;;;;12.90;100.00;96156.00;5056285;28;20209;-76